| Date | Time | Temp. (oF) | Dew Point (oF) | Rel. Hum. (%) | Press. (in.) | Wind Dir. | Wind Speed (mph) | Hourly Rainfall (in.) |
|
|---|---|---|---|---|---|---|---|---|---|
| 1 | 10/13 | 00:00 | 56 | 46 | 71 | 29.94 | ENE | 5 | 0.00 |
| 2 | 10/12 | 23:00 | 58 | 47 | 67 | 29.91 | SSE | 0 | 0.00 |
| 3 | 10/12 | 22:00 | 60 | 50 | 71 | 29.89 | NE | 4 | 0.00 |
| 4 | 10/12 | 21:00 | 62 | 53 | 73 | 29.86 | ENE | 2 | 0.00 |
| 5 | 10/12 | 20:00 | 62 | 52 | 71 | 29.82 | NE | 0 | 0.00 |
| 6 | 10/12 | 19:00 | 67 | 48 | 52 | 29.79 | N | 1 | 0.00 |
| 7 | 10/12 | 18:00 | 73 | 50 | 45 | 29.77 | NW | 2 | 0.00 |
| 8 | 10/12 | 17:00 | 75 | 52 | 45 | 29.75 | N | 7 | 0.00 |
| 9 | 10/12 | 16:00 | 75 | 58 | 57 | 29.75 | NW | 10 | 0.00 |
| 10 | 10/12 | 15:00 | 74 | 62 | 67 | 29.75 | N | 3 | 0.00 |
| 11 | 10/12 | 14:00 | 74 | 61 | 66 | 29.75 | NNE | 8 | 0.00 |
| 12 | 10/12 | 13:00 | 73 | 62 | 70 | 29.77 | NNE | 7 | 0.00 |
| 13 | 10/12 | 12:00 | 72 | 65 | 81 | 29.78 | N | 4 | 0.00 |
| 14 | 10/12 | 11:00 | 69 | 67 | 96 | 29.79 | WSW | 3 | 0.00 |
| 15 | 10/12 | 10:00 | 65 | 62 | 93 | 29.80 | W | 2 | 0.00 |
| 16 | 10/12 | 09:00 | 61 | 51 | 70 | 29.79 | SSW | 4 | 0.00 |
| 17 | 10/12 | 08:00 | 58 | 50 | 76 | 29.79 | SW | 0 | 0.00 |
| 18 | 10/12 | 07:00 | 58 | 51 | 78 | 29.78 | S | 0 | 0.01 |
| 19 | 10/12 | 06:00 | 59 | 52 | 80 | 29.76 | S | 4 | 0.00 |
| 20 | 10/12 | 05:00 | 59 | 54 | 84 | 29.78 | E | 0 | 0.06 |
| 21 | 10/12 | 04:00 | 60 | 56 | 89 | 29.81 | WSW | 0 | 0.08 |
| 22 | 10/12 | 03:00 | 61 | 59 | 94 | 29.79 | SW | 0 | 0.03 |
| 23 | 10/12 | 02:00 | 62 | 60 | 95 | 29.77 | NE | 3 | 0.00 |
| 24 | 10/12 | 01:00 | 61 | 58 | 91 | 29.75 | NW | 0 | 0.00 |